sensor_id;sensor_type;location;lat;lon;timestamp;P1;durP1;ratioP1;P2;durP2;ratioP2
57697;SDS011;43531;52.152;6.366;2023-04-01T00:00:24;3.33;;;1.90;;
57697;SDS011;43531;52.152;6.366;2023-04-01T00:00:56;3.88;;;2.17;;
57697;SDS011;43531;52.152;6.366;2023-04-01T00:01:29;3.53;;;3.05;;
57697;SDS011;43531;52.152;6.366;2023-04-01T00:02:01;5.78;;;2.15;;
57697;SDS011;43531;52.152;6.366;2023-04-01T00:02:33;5.28;;;2.38;;
57697;SDS011;43531;52.152;6.366;2023-04-01T00:03:04;6.65;;;2.05;;
57697;SDS011;43531;52.152;6.366;2023-04-01T00:03:36;4.05;;;2.28;;
57697;SDS011;43531;52.152;6.366;2023-04-01T00:04:08;3.85;;;2.10;;
57697;SDS011;43531;52.152;6.366;2023-04-01T00:04:40;3.42;;;1.88;;
57697;SDS011;43531;52.152;6.366;2023-04-01T00:05:12;5.15;;;2.30;;
57697;SDS011;43531;52.152;6.366;2023-04-01T00:05:44;8.20;;;2.35;;
57697;SDS011;43531;52.152;6.366;2023-04-01T00:06:17;3.83;;;2.53;;
57697;SDS011;43531;52.152;6.366;2023-04-01T00:06:49;4.07;;;2.20;;
57697;SDS011;43531;52.152;6.366;2023-04-01T00:07:22;2.88;;;1.73;;
57697;SDS011;43531;52.152;6.366;2023-04-01T00:07:54;5.20;;;2.65;;
57697;SDS011;43531;52.152;6.366;2023-04-01T00:08:26;2.20;;;1.98;;
57697;SDS011;43531;52.152;6.366;2023-04-01T00:08:58;5.43;;;2.28;;
57697;SDS011;43531;52.152;6.366;2023-04-01T00:09:29;3.85;;;1.70;;
57697;SDS011;43531;52.152;6.366;2023-04-01T00:10:01;9.02;;;2.08;;
57697;SDS011;43531;52.152;6.366;2023-04-01T00:10:34;3.20;;;2.85;;
57697;SDS011;43531;52.152;6.366;2023-04-01T00:11:06;6.05;;;2.30;;
57697;SDS011;43531;52.152;6.366;2023-04-01T00:11:39;5.78;;;2.03;;
57697;SDS011;43531;52.152;6.366;2023-04-01T00:12:11;3.55;;;1.92;;
57697;SDS011;43531;52.152;6.366;2023-04-01T00:12:43;2.30;;;1.67;;
57697;SDS011;43531;52.152;6.366;2023-04-01T00:13:15;3.47;;;1.80;;
57697;SDS011;43531;52.152;6.366;2023-04-01T00:13:47;6.05;;;2.30;;
57697;SDS011;43531;52.152;6.366;2023-04-01T00:14:19;3.25;;;2.05;;
57697;SDS011;43531;52.152;6.366;2023-04-01T00:14:50;4.95;;;2.42;;
57697;SDS011;43531;52.152;6.366;2023-04-01T00:15:22;4.93;;;2.65;;
57697;SDS011;43531;52.152;6.366;2023-04-01T00:15:54;3.38;;;1.75;;
57697;SDS011;43531;52.152;6.366;2023-04-01T00:16:27;5.32;;;2.70;;
57697;SDS011;43531;52.152;6.366;2023-04-01T00:16:59;3.53;;;2.17;;
57697;SDS011;43531;52.152;6.366;2023-04-01T00:17:30;3.60;;;1.52;;
57697;SDS011;43531;52.152;6.366;2023-04-01T00:18:02;6.18;;;2.30;;
57697;SDS011;43531;52.152;6.366;2023-04-01T00:18:34;7.60;;;2.35;;
57697;SDS011;43531;52.152;6.366;2023-04-01T00:19:06;4.43;;;2.72;;
57697;SDS011;43531;52.152;6.366;2023-04-01T00:19:37;3.72;;;2.83;;
57697;SDS011;43531;52.152;6.366;2023-04-01T00:20:09;5.50;;;2.05;;
57697;SDS011;43531;52.152;6.366;2023-04-01T00:20:45;3.05;;;2.20;;
57697;SDS011;43531;52.152;6.366;2023-04-01T00:21:18;2.90;;;1.80;;
57697;SDS011;43531;52.152;6.366;2023-04-01T00:21:51;6.32;;;2.35;;
57697;SDS011;43531;52.152;6.366;2023-04-01T00:22:24;3.28;;;1.60;;
57697;SDS011;43531;52.152;6.366;2023-04-01T00:22:56;3.70;;;1.98;;
57697;SDS011;43531;52.152;6.366;2023-04-01T00:23:28;4.10;;;2.40;;
57697;SDS011;43531;52.152;6.366;2023-04-01T00:23:59;5.18;;;2.25;;
57697;SDS011;43531;52.152;6.366;2023-04-01T00:24:31;5.28;;;2.28;;
57697;SDS011;43531;52.152;6.366;2023-04-01T00:25:03;3.00;;;1.98;;
57697;SDS011;43531;52.152;6.366;2023-04-01T00:25:36;3.28;;;2.15;;
57697;SDS011;43531;52.152;6.366;2023-04-01T00:26:26;5.45;;;2.33;;
57697;SDS011;43531;52.152;6.366;2023-04-01T00:26:57;2.55;;;1.73;;
57697;SDS011;43531;52.152;6.366;2023-04-01T00:27:29;5.88;;;1.85;;
57697;SDS011;43531;52.152;6.366;2023-04-01T00:28:00;4.40;;;1.85;;
57697;SDS011;43531;52.152;6.366;2023-04-01T00:28:33;3.72;;;2.50;;
57697;SDS011;43531;52.152;6.366;2023-04-01T00:29:07;4.75;;;2.03;;
57697;SDS011;43531;52.152;6.366;2023-04-01T00:29:41;2.55;;;1.90;;
57697;SDS011;43531;52.152;6.366;2023-04-01T00:30:16;3.50;;;2.13;;
57697;SDS011;43531;52.152;6.366;2023-04-01T00:30:47;6.65;;;2.33;;
57697;SDS011;43531;52.152;6.366;2023-04-01T00:31:19;3.67;;;2.10;;
57697;SDS011;43531;52.152;6.366;2023-04-01T00:31:51;3.17;;;1.70;;
57697;SDS011;43531;52.152;6.366;2023-04-01T00:32:23;2.60;;;1.52;;
57697;SDS011;43531;52.152;6.366;2023-04-01T00:32:55;4.25;;;2.40;;
57697;SDS011;43531;52.152;6.366;2023-04-01T00:33:27;4.28;;;1.98;;
57697;SDS011;43531;52.152;6.366;2023-04-01T00:33:58;6.22;;;2.05;;
57697;SDS011;43531;52.152;6.366;2023-04-01T00:34:30;4.40;;;2.22;;
57697;SDS011;43531;52.152;6.366;2023-04-01T00:35:02;3.80;;;2.10;;
57697;SDS011;43531;52.152;6.366;2023-04-01T00:35:34;3.88;;;1.75;;
57697;SDS011;43531;52.152;6.366;2023-04-01T00:36:38;7.20;;;2.30;;
57697;SDS011;43531;52.152;6.366;2023-04-01T00:37:10;2.47;;;2.28;;
57697;SDS011;43531;52.152;6.366;2023-04-01T00:37:42;7.65;;;1.92;;
57697;SDS011;43531;52.152;6.366;2023-04-01T00:38:14;4.93;;;2.47;;
57697;SDS011;43531;52.152;6.366;2023-04-01T00:38:45;3.05;;;2.03;;
57697;SDS011;43531;52.152;6.366;2023-04-01T00:39:18;2.65;;;1.98;;
57697;SDS011;43531;52.152;6.366;2023-04-01T00:39:51;4.50;;;1.65;;
57697;SDS011;43531;52.152;6.366;2023-04-01T00:40:36;3.63;;;2.53;;
57697;SDS011;43531;52.152;6.366;2023-04-01T00:41:09;2.83;;;2.13;;
57697;SDS011;43531;52.152;6.366;2023-04-01T00:41:45;4.07;;;2.20;;
57697;SDS011;43531;52.152;6.366;2023-04-01T00:42:17;5.40;;;2.08;;
57697;SDS011;43531;52.152;6.366;2023-04-01T00:42:49;3.38;;;1.90;;
57697;SDS011;43531;52.152;6.366;2023-04-01T00:43:21;4.82;;;2.20;;
57697;SDS011;43531;52.152;6.366;2023-04-01T00:44:11;3.97;;;1.70;;
57697;SDS011;43531;52.152;6.366;2023-04-01T00:44:53;1.95;;;1.75;;
57697;SDS011;43531;52.152;6.366;2023-04-01T00:45:30;4.40;;;1.80;;
57697;SDS011;43531;52.152;6.366;2023-04-01T00:46:04;5.55;;;2.00;;
57697;SDS011;43531;52.152;6.366;2023-04-01T00:46:36;5.85;;;2.42;;
57697;SDS011;43531;52.152;6.366;2023-04-01T00:47:08;2.75;;;1.52;;
57697;SDS011;43531;52.152;6.366;2023-04-01T00:47:40;3.80;;;2.03;;
57697;SDS011;43531;52.152;6.366;2023-04-01T00:48:53;4.00;;;1.60;;
57697;SDS011;43531;52.152;6.366;2023-04-01T00:49:29;5.30;;;1.80;;
57697;SDS011;43531;52.152;6.366;2023-04-01T00:50:03;5.28;;;2.08;;
57697;SDS011;43531;52.152;6.366;2023-04-01T00:50:35;2.00;;;1.80;;
57697;SDS011;43531;52.152;6.366;2023-04-01T00:51:16;6.57;;;2.20;;
57697;SDS011;43531;52.152;6.366;2023-04-01T00:51:50;4.75;;;1.80;;
57697;SDS011;43531;52.152;6.366;2023-04-01T00:52:23;1.88;;;1.58;;
57697;SDS011;43531;52.152;6.366;2023-04-01T00:52:57;3.47;;;2.20;;
57697;SDS011;43531;52.152;6.366;2023-04-01T00:53:30;4.00;;;1.75;;
57697;SDS011;43531;52.152;6.366;2023-04-01T00:54:02;3.75;;;1.90;;
57697;SDS011;43531;52.152;6.366;2023-04-01T00:54:35;4.97;;;1.63;;
57697;SDS011;43531;52.152;6.366;2023-04-01T00:55:07;2.83;;;1.83;;
57697;SDS011;43531;52.152;6.366;2023-04-01T00:55:41;2.85;;;1.83;;
57697;SDS011;43531;52.152;6.366;2023-04-01T00:56:16;4.10;;;1.60;;
57697;SDS011;43531;52.152;6.366;2023-04-01T00:57:07;4.22;;;1.67;;
57697;SDS011;43531;52.152;6.366;2023-04-01T00:57:42;5.22;;;2.17;;
57697;SDS011;43531;52.152;6.366;2023-04-01T00:58:16;7.20;;;2.10;;
57697;SDS011;43531;52.152;6.366;2023-04-01T00:58:50;2.17;;;1.98;;
57697;SDS011;43531;52.152;6.366;2023-04-01T00:59:25;3.63;;;1.27;;
57697;SDS011;43531;52.152;6.366;2023-04-01T00:59:58;2.67;;;2.15;;
57697;SDS011;43531;52.152;6.366;2023-04-01T01:00:30;3.90;;;2.42;;
57697;SDS011;43531;52.152;6.366;2023-04-01T01:01:02;3.83;;;2.05;;
57697;SDS011;43531;52.152;6.366;2023-04-01T01:01:34;7.85;;;1.92;;
57697;SDS011;43531;52.152;6.366;2023-04-01T01:02:07;4.30;;;2.20;;
57697;SDS011;43531;52.152;6.366;2023-04-01T01:02:43;3.92;;;1.85;;
57697;SDS011;43531;52.152;6.366;2023-04-01T01:03:16;6.65;;;1.98;;
57697;SDS011;43531;52.152;6.366;2023-04-01T01:03:48;3.33;;;1.98;;
57697;SDS011;43531;52.152;6.366;2023-04-01T01:04:30;2.15;;;2.00;;
57697;SDS011;43531;52.152;6.366;2023-04-01T01:05:02;5.55;;;2.80;;
57697;SDS011;43531;52.152;6.366;2023-04-01T01:05:48;2.28;;;1.80;;
57697;SDS011;43531;52.152;6.366;2023-04-01T01:08:17;4.40;;;2.00;;
57697;SDS011;43531;52.152;6.366;2023-04-01T01:09:14;2.83;;;1.80;;
57697;SDS011;43531;52.152;6.366;2023-04-01T01:10:31;2.28;;;2.03;;
57697;SDS011;43531;52.152;6.366;2023-04-01T01:11:05;4.47;;;2.25;;
57697;SDS011;43531;52.152;6.366;2023-04-01T01:11:48;3.92;;;1.75;;
57697;SDS011;43531;52.152;6.366;2023-04-01T01:12:25;3.90;;;1.92;;
57697;SDS011;43531;52.152;6.366;2023-04-01T01:14:07;4.30;;;2.30;;
57697;SDS011;43531;52.152;6.366;2023-04-01T01:14:49;5.55;;;2.15;;
57697;SDS011;43531;52.152;6.366;2023-04-01T01:16:40;5.30;;;3.10;;
57697;SDS011;43531;52.152;6.366;2023-04-01T01:18:19;3.85;;;2.08;;
57697;SDS011;43531;52.152;6.366;2023-04-01T01:21:14;2.42;;;1.73;;
57697;SDS011;43531;52.152;6.366;2023-04-01T01:24:35;4.53;;;2.90;;
57697;SDS011;43531;52.152;6.366;2023-04-01T01:25:18;2.47;;;2.03;;
57697;SDS011;43531;52.152;6.366;2023-04-01T01:27:02;3.45;;;2.13;;
57697;SDS011;43531;52.152;6.366;2023-04-01T01:27:36;2.85;;;2.65;;
57697;SDS011;43531;52.152;6.366;2023-04-01T01:30:09;5.45;;;2.95;;
57697;SDS011;43531;52.152;6.366;2023-04-01T01:30:51;3.25;;;2.28;;
57697;SDS011;43531;52.152;6.366;2023-04-01T01:31:50;4.68;;;3.60;;
57697;SDS011;43531;52.152;6.366;2023-04-01T01:36:02;6.30;;;2.67;;
57697;SDS011;43531;52.152;6.366;2023-04-01T01:36:37;4.13;;;3.35;;
57697;SDS011;43531;52.152;6.366;2023-04-01T01:37:13;3.25;;;2.80;;
57697;SDS011;43531;52.152;6.366;2023-04-01T01:37:47;4.25;;;2.50;;
57697;SDS011;43531;52.152;6.366;2023-04-01T01:38:23;3.92;;;3.05;;
57697;SDS011;43531;52.152;6.366;2023-04-01T01:39:06;26.90;;;5.28;;
57697;SDS011;43531;52.152;6.366;2023-04-01T01:39:39;6.72;;;3.00;;
57697;SDS011;43531;52.152;6.366;2023-04-01T01:40:11;3.78;;;3.17;;
57697;SDS011;43531;52.152;6.366;2023-04-01T01:40:46;4.53;;;3.85;;
57697;SDS011;43531;52.152;6.366;2023-04-01T01:41:20;4.22;;;3.78;;
57697;SDS011;43531;52.152;6.366;2023-04-01T01:41:55;3.05;;;2.78;;
57697;SDS011;43531;52.152;6.366;2023-04-01T01:42:27;3.20;;;2.72;;
57697;SDS011;43531;52.152;6.366;2023-04-01T01:43:05;4.03;;;3.00;;
57697;SDS011;43531;52.152;6.366;2023-04-01T01:43:41;2.97;;;2.35;;
57697;SDS011;43531;52.152;6.366;2023-04-01T01:44:17;5.20;;;2.78;;
57697;SDS011;43531;52.152;6.366;2023-04-01T01:44:49;5.82;;;2.70;;
57697;SDS011;43531;52.152;6.366;2023-04-01T01:45:23;4.82;;;3.22;;
57697;SDS011;43531;52.152;6.366;2023-04-01T01:45:57;6.03;;;3.53;;
57697;SDS011;43531;52.152;6.366;2023-04-01T01:46:32;3.75;;;2.75;;
57697;SDS011;43531;52.152;6.366;2023-04-01T01:47:04;3.53;;;2.55;;
57697;SDS011;43531;52.152;6.366;2023-04-01T01:47:36;4.15;;;3.75;;
57697;SDS011;43531;52.152;6.366;2023-04-01T01:48:09;5.82;;;2.97;;
57697;SDS011;43531;52.152;6.366;2023-04-01T01:48:42;4.65;;;3.20;;
57697;SDS011;43531;52.152;6.366;2023-04-01T01:49:14;5.40;;;3.20;;
57697;SDS011;43531;52.152;6.366;2023-04-01T01:49:47;3.75;;;3.13;;
57697;SDS011;43531;52.152;6.366;2023-04-01T01:50:20;5.38;;;3.35;;
57697;SDS011;43531;52.152;6.366;2023-04-01T01:50:53;7.72;;;4.65;;
57697;SDS011;43531;52.152;6.366;2023-04-01T01:51:25;3.58;;;3.22;;
57697;SDS011;43531;52.152;6.366;2023-04-01T01:51:58;5.28;;;3.83;;
57697;SDS011;43531;52.152;6.366;2023-04-01T01:52:30;4.15;;;3.70;;
57697;SDS011;43531;52.152;6.366;2023-04-01T01:53:05;4.22;;;3.58;;
57697;SDS011;43531;52.152;6.366;2023-04-01T01:53:39;5.45;;;3.72;;
57697;SDS011;43531;52.152;6.366;2023-04-01T01:54:12;5.88;;;4.45;;
57697;SDS011;43531;52.152;6.366;2023-04-01T01:54:52;5.57;;;3.88;;
57697;SDS011;43531;52.152;6.366;2023-04-01T01:56:04;4.88;;;3.67;;
57697;SDS011;43531;52.152;6.366;2023-04-01T01:56:41;3.50;;;3.13;;
57697;SDS011;43531;52.152;6.366;2023-04-01T01:57:15;5.90;;;4.20;;
57697;SDS011;43531;52.152;6.366;2023-04-01T01:57:52;8.50;;;5.32;;
57697;SDS011;43531;52.152;6.366;2023-04-01T01:58:30;6.10;;;3.80;;
57697;SDS011;43531;52.152;6.366;2023-04-01T01:59:05;5.28;;;4.55;;
57697;SDS011;43531;52.152;6.366;2023-04-01T01:59:39;4.75;;;3.50;;
57697;SDS011;43531;52.152;6.366;2023-04-01T02:00:12;4.57;;;4.10;;
57697;SDS011;43531;52.152;6.366;2023-04-01T02:00:48;7.50;;;4.03;;
57697;SDS011;43531;52.152;6.366;2023-04-01T02:01:24;6.43;;;4.05;;
57697;SDS011;43531;52.152;6.366;2023-04-01T02:01:58;5.45;;;4.22;;
57697;SDS011;43531;52.152;6.366;2023-04-01T02:02:30;4.80;;;4.30;;
57697;SDS011;43531;52.152;6.366;2023-04-01T02:03:03;5.90;;;4.50;;
57697;SDS011;43531;52.152;6.366;2023-04-01T02:03:36;4.53;;;4.13;;
57697;SDS011;43531;52.152;6.366;2023-04-01T02:04:08;5.18;;;4.38;;
57697;SDS011;43531;52.152;6.366;2023-04-01T02:04:42;5.53;;;4.60;;
57697;SDS011;43531;52.152;6.366;2023-04-01T02:05:16;5.10;;;4.15;;
57697;SDS011;43531;52.152;6.366;2023-04-01T02:05:52;5.30;;;4.45;;
57697;SDS011;43531;52.152;6.366;2023-04-01T02:06:25;7.78;;;4.80;;
57697;SDS011;43531;52.152;6.366;2023-04-01T02:07:02;6.47;;;4.65;;
57697;SDS011;43531;52.152;6.366;2023-04-01T02:07:38;5.00;;;4.30;;
57697;SDS011;43531;52.152;6.366;2023-04-01T02:08:15;12.65;;;5.18;;
57697;SDS011;43531;52.152;6.366;2023-04-01T02:08:54;5.45;;;4.88;;
57697;SDS011;43531;52.152;6.366;2023-04-01T02:09:28;8.25;;;5.68;;
57697;SDS011;43531;52.152;6.366;2023-04-01T02:10:00;7.22;;;5.13;;
57697;SDS011;43531;52.152;6.366;2023-04-01T02:10:34;7.07;;;4.43;;
57697;SDS011;43531;52.152;6.366;2023-04-01T02:11:09;4.93;;;4.05;;
57697;SDS011;43531;52.152;6.366;2023-04-01T02:11:52;6.97;;;5.32;;
57697;SDS011;43531;52.152;6.366;2023-04-01T02:12:26;5.85;;;4.32;;
57697;SDS011;43531;52.152;6.366;2023-04-01T02:13:01;9.13;;;4.82;;
57697;SDS011;43531;52.152;6.366;2023-04-01T02:14:11;5.45;;;4.32;;
57697;SDS011;43531;52.152;6.366;2023-04-01T02:14:47;6.57;;;4.80;;
57697;SDS011;43531;52.152;6.366;2023-04-01T02:15:23;7.47;;;4.72;;
57697;SDS011;43531;52.152;6.366;2023-04-01T02:15:56;8.43;;;4.75;;
57697;SDS011;43531;52.152;6.366;2023-04-01T02:16:34;6.35;;;5.55;;
57697;SDS011;43531;52.152;6.366;2023-04-01T02:17:11;5.85;;;5.35;;
57697;SDS011;43531;52.152;6.366;2023-04-01T02:17:45;9.70;;;5.78;;
57697;SDS011;43531;52.152;6.366;2023-04-01T02:18:18;6.32;;;5.50;;
57697;SDS011;43531;52.152;6.366;2023-04-01T02:18:50;7.43;;;5.13;;
57697;SDS011;43531;52.152;6.366;2023-04-01T02:19:26;8.32;;;5.65;;
57697;SDS011;43531;52.152;6.366;2023-04-01T02:20:04;10.10;;;5.50;;
57697;SDS011;43531;52.152;6.366;2023-04-01T02:20:40;8.60;;;5.68;;
57697;SDS011;43531;52.152;6.366;2023-04-01T02:21:12;5.88;;;5.28;;
57697;SDS011;43531;52.152;6.366;2023-04-01T02:21:44;6.38;;;5.50;;
57697;SDS011;43531;52.152;6.366;2023-04-01T02:22:18;7.70;;;5.05;;
57697;SDS011;43531;52.152;6.366;2023-04-01T02:22:55;7.72;;;5.50;;
57697;SDS011;43531;52.152;6.366;2023-04-01T02:23:29;8.98;;;5.47;;
57697;SDS011;43531;52.152;6.366;2023-04-01T02:24:02;7.57;;;5.43;;
57697;SDS011;43531;52.152;6.366;2023-04-01T02:24:37;7.13;;;5.93;;
57697;SDS011;43531;52.152;6.366;2023-04-01T02:25:13;12.32;;;6.32;;
57697;SDS011;43531;52.152;6.366;2023-04-01T02:25:46;7.95;;;5.55;;
57697;SDS011;43531;52.152;6.366;2023-04-01T02:26:18;8.75;;;6.68;;
57697;SDS011;43531;52.152;6.366;2023-04-01T02:26:50;9.52;;;6.57;;
57697;SDS011;43531;52.152;6.366;2023-04-01T02:27:23;7.93;;;6.40;;
57697;SDS011;43531;52.152;6.366;2023-04-01T02:27:55;7.43;;;6.60;;
57697;SDS011;43531;52.152;6.366;2023-04-01T02:28:28;8.38;;;5.75;;
57697;SDS011;43531;52.152;6.366;2023-04-01T02:29:00;7.03;;;5.80;;
57697;SDS011;43531;52.152;6.366;2023-04-01T02:29:33;10.77;;;7.28;;
57697;SDS011;43531;52.152;6.366;2023-04-01T02:30:04;8.35;;;6.75;;
57697;SDS011;43531;52.152;6.366;2023-04-01T02:30:38;7.57;;;6.18;;
57697;SDS011;43531;52.152;6.366;2023-04-01T02:31:10;9.05;;;6.47;;
57697;SDS011;43531;52.152;6.366;2023-04-01T02:31:43;9.65;;;6.78;;
57697;SDS011;43531;52.152;6.366;2023-04-01T02:32:15;11.88;;;6.35;;
57697;SDS011;43531;52.152;6.366;2023-04-01T02:32:48;7.38;;;6.35;;
57697;SDS011;43531;52.152;6.366;2023-04-01T02:33:20;11.18;;;7.03;;
57697;SDS011;43531;52.152;6.366;2023-04-01T02:33:53;9.50;;;6.78;;
57697;SDS011;43531;52.152;6.366;2023-04-01T02:34:25;9.50;;;7.13;;
57697;SDS011;43531;52.152;6.366;2023-04-01T02:34:57;12.02;;;7.07;;
57697;SDS011;43531;52.152;6.366;2023-04-01T02:35:32;10.98;;;6.60;;
57697;SDS011;43531;52.152;6.366;2023-04-01T02:36:05;11.40;;;7.32;;
57697;SDS011;43531;52.152;6.366;2023-04-01T02:36:38;9.73;;;6.80;;
57697;SDS011;43531;52.152;6.366;2023-04-01T02:37:10;9.38;;;7.60;;
57697;SDS011;43531;52.152;6.366;2023-04-01T02:37:43;9.13;;;6.50;;
57697;SDS011;43531;52.152;6.366;2023-04-01T02:38:15;8.32;;;6.00;;
57697;SDS011;43531;52.152;6.366;2023-04-01T02:38:47;14.82;;;7.60;;
57697;SDS011;43531;52.152;6.366;2023-04-01T02:39:20;10.50;;;6.07;;
57697;SDS011;43531;52.152;6.366;2023-04-01T02:39:52;10.07;;;7.32;;
57697;SDS011;43531;52.152;6.366;2023-04-01T02:40:24;8.88;;;6.30;;
57697;SDS011;43531;52.152;6.366;2023-04-01T02:40:57;9.00;;;7.57;;
57697;SDS011;43531;52.152;6.366;2023-04-01T02:41:31;9.88;;;7.00;;
57697;SDS011;43531;52.152;6.366;2023-04-01T02:42:03;7.10;;;6.40;;
57697;SDS011;43531;52.152;6.366;2023-04-01T02:42:35;8.32;;;7.13;;
57697;SDS011;43531;52.152;6.366;2023-04-01T02:43:07;11.05;;;7.03;;
57697;SDS011;43531;52.152;6.366;2023-04-01T02:43:39;9.27;;;7.30;;
57697;SDS011;43531;52.152;6.366;2023-04-01T02:44:12;12.50;;;8.25;;
57697;SDS011;43531;52.152;6.366;2023-04-01T02:44:44;15.32;;;7.30;;
57697;SDS011;43531;52.152;6.366;2023-04-01T02:45:16;10.93;;;7.70;;
57697;SDS011;43531;52.152;6.366;2023-04-01T02:45:47;8.27;;;7.47;;
57697;SDS011;43531;52.152;6.366;2023-04-01T02:46:19;8.50;;;7.30;;
57697;SDS011;43531;52.152;6.366;2023-04-01T02:46:51;12.52;;;7.13;;
57697;SDS011;43531;52.152;6.366;2023-04-01T02:47:24;7.50;;;6.10;;
57697;SDS011;43531;52.152;6.366;2023-04-01T02:47:55;9.32;;;6.72;;
57697;SDS011;43531;52.152;6.366;2023-04-01T02:48:27;9.02;;;7.32;;
57697;SDS011;43531;52.152;6.366;2023-04-01T02:48:59;16.38;;;7.20;;
57697;SDS011;43531;52.152;6.366;2023-04-01T02:49:31;8.88;;;7.53;;
57697;SDS011;43531;52.152;6.366;2023-04-01T02:50:03;9.10;;;7.10;;
57697;SDS011;43531;52.152;6.366;2023-04-01T02:50:35;7.55;;;6.57;;
57697;SDS011;43531;52.152;6.366;2023-04-01T02:51:07;10.48;;;7.65;;
57697;SDS011;43531;52.152;6.366;2023-04-01T02:51:39;9.30;;;7.70;;
57697;SDS011;43531;52.152;6.366;2023-04-01T02:52:11;15.00;;;8.75;;
57697;SDS011;43531;52.152;6.366;2023-04-01T02:52:42;9.60;;;8.60;;
57697;SDS011;43531;52.152;6.366;2023-04-01T02:53:14;10.63;;;9.65;;
57697;SDS011;43531;52.152;6.366;2023-04-01T02:53:46;11.18;;;8.07;;
57697;SDS011;43531;52.152;6.366;2023-04-01T02:54:18;8.60;;;7.80;;
57697;SDS011;43531;52.152;6.366;2023-04-01T02:54:50;9.95;;;7.47;;
57697;SDS011;43531;52.152;6.366;2023-04-01T02:55:22;9.98;;;7.90;;
57697;SDS011;43531;52.152;6.366;2023-04-01T02:55:54;9.38;;;8.30;;
57697;SDS011;43531;52.152;6.366;2023-04-01T02:56:25;10.02;;;8.98;;
57697;SDS011;43531;52.152;6.366;2023-04-01T02:56:57;13.57;;;9.38;;
57697;SDS011;43531;52.152;6.366;2023-04-01T02:57:29;11.07;;;8.13;;
57697;SDS011;43531;52.152;6.366;2023-04-01T02:58:01;12.05;;;9.27;;
57697;SDS011;43531;52.152;6.366;2023-04-01T02:58:33;11.13;;;9.02;;
57697;SDS011;43531;52.152;6.366;2023-04-01T02:59:05;8.65;;;7.78;;
57697;SDS011;43531;52.152;6.366;2023-04-01T02:59:36;11.77;;;8.95;;
57697;SDS011;43531;52.152;6.366;2023-04-01T03:00:08;9.30;;;8.35;;
57697;SDS011;43531;52.152;6.366;2023-04-01T03:00:42;10.25;;;8.43;;
57697;SDS011;43531;52.152;6.366;2023-04-01T03:01:14;9.85;;;8.52;;
57697;SDS011;43531;52.152;6.366;2023-04-01T03:01:46;11.70;;;7.70;;
57697;SDS011;43531;52.152;6.366;2023-04-01T03:02:17;14.45;;;9.68;;
57697;SDS011;43531;52.152;6.366;2023-04-01T03:02:49;9.20;;;8.20;;
57697;SDS011;43531;52.152;6.366;2023-04-01T03:03:21;10.88;;;7.63;;
57697;SDS011;43531;52.152;6.366;2023-04-01T03:03:53;9.93;;;7.93;;
57697;SDS011;43531;52.152;6.366;2023-04-01T03:04:24;11.70;;;8.30;;
57697;SDS011;43531;52.152;6.366;2023-04-01T03:04:56;12.85;;;8.63;;
57697;SDS011;43531;52.152;6.366;2023-04-01T03:05:28;9.57;;;7.35;;
57697;SDS011;43531;52.152;6.366;2023-04-01T03:06:06;10.73;;;7.85;;
57697;SDS011;43531;52.152;6.366;2023-04-01T03:06:39;9.43;;;8.13;;
57697;SDS011;43531;52.152;6.366;2023-04-01T03:07:10;8.82;;;7.53;;
57697;SDS011;43531;52.152;6.366;2023-04-01T03:07:42;11.90;;;8.20;;
57697;SDS011;43531;52.152;6.366;2023-04-01T03:08:14;8.73;;;7.78;;
57697;SDS011;43531;52.152;6.366;2023-04-01T03:08:47;7.97;;;7.15;;
57697;SDS011;43531;52.152;6.366;2023-04-01T03:09:18;9.45;;;8.07;;
57697;SDS011;43531;52.152;6.366;2023-04-01T03:09:50;8.85;;;7.35;;
57697;SDS011;43531;52.152;6.366;2023-04-01T03:10:22;9.50;;;7.88;;
57697;SDS011;43531;52.152;6.366;2023-04-01T03:10:53;9.25;;;7.65;;
57697;SDS011;43531;52.152;6.366;2023-04-01T03:11:25;9.80;;;8.30;;
57697;SDS011;43531;52.152;6.366;2023-04-01T03:11:57;9.95;;;7.45;;
57697;SDS011;43531;52.152;6.366;2023-04-01T03:12:29;8.05;;;7.25;;
57697;SDS011;43531;52.152;6.366;2023-04-01T03:13:01;10.35;;;8.00;;
57697;SDS011;43531;52.152;6.366;2023-04-01T03:13:33;10.05;;;7.45;;
57697;SDS011;43531;52.152;6.366;2023-04-01T03:14:04;7.90;;;7.07;;
57697;SDS011;43531;52.152;6.366;2023-04-01T03:14:36;9.07;;;7.75;;
57697;SDS011;43531;52.152;6.366;2023-04-01T03:15:09;8.52;;;6.55;;
57697;SDS011;43531;52.152;6.366;2023-04-01T03:15:43;8.48;;;7.57;;
57697;SDS011;43531;52.152;6.366;2023-04-01T03:16:14;8.18;;;7.38;;
57697;SDS011;43531;52.152;6.366;2023-04-01T03:16:46;9.95;;;6.90;;
57697;SDS011;43531;52.152;6.366;2023-04-01T03:17:18;11.80;;;7.30;;
57697;SDS011;43531;52.152;6.366;2023-04-01T03:17:50;7.88;;;7.10;;
57697;SDS011;43531;52.152;6.366;2023-04-01T03:18:22;7.57;;;6.38;;
57697;SDS011;43531;52.152;6.366;2023-04-01T03:18:54;8.23;;;6.95;;
57697;SDS011;43531;52.152;6.366;2023-04-01T03:19:28;7.35;;;6.47;;
57697;SDS011;43531;52.152;6.366;2023-04-01T03:19:59;14.30;;;6.28;;
57697;SDS011;43531;52.152;6.366;2023-04-01T03:20:31;7.68;;;6.63;;
57697;SDS011;43531;52.152;6.366;2023-04-01T03:21:15;10.75;;;5.88;;
57697;SDS011;43531;52.152;6.366;2023-04-01T03:21:49;7.97;;;5.90;;
57697;SDS011;43531;52.152;6.366;2023-04-01T03:22:20;6.85;;;5.50;;
57697;SDS011;43531;52.152;6.366;2023-04-01T03:22:52;7.25;;;5.70;;
57697;SDS011;43531;52.152;6.366;2023-04-01T03:23:24;6.47;;;5.68;;
57697;SDS011;43531;52.152;6.366;2023-04-01T03:23:55;10.23;;;7.57;;
57697;SDS011;43531;52.152;6.366;2023-04-01T03:24:27;6.80;;;5.70;;
57697;SDS011;43531;52.152;6.366;2023-04-01T03:24:59;12.45;;;6.72;;
57697;SDS011;43531;52.152;6.366;2023-04-01T03:25:30;6.70;;;5.88;;
57697;SDS011;43531;52.152;6.366;2023-04-01T03:26:03;9.02;;;6.78;;
57697;SDS011;43531;52.152;6.366;2023-04-01T03:26:34;11.27;;;7.18;;
57697;SDS011;43531;52.152;6.366;2023-04-01T03:27:06;7.93;;;6.55;;
57697;SDS011;43531;52.152;6.366;2023-04-01T03:27:37;7.97;;;6.47;;
57697;SDS011;43531;52.152;6.366;2023-04-01T03:28:10;6.70;;;5.88;;
57697;SDS011;43531;52.152;6.366;2023-04-01T03:28:43;8.63;;;6.28;;
57697;SDS011;43531;52.152;6.366;2023-04-01T03:29:16;6.78;;;6.07;;
57697;SDS011;43531;52.152;6.366;2023-04-01T03:29:47;8.23;;;6.03;;
57697;SDS011;43531;52.152;6.366;2023-04-01T03:30:19;9.13;;;6.72;;
57697;SDS011;43531;52.152;6.366;2023-04-01T03:30:54;10.32;;;6.68;;
57697;SDS011;43531;52.152;6.366;2023-04-01T03:31:26;9.05;;;7.10;;
57697;SDS011;43531;52.152;6.366;2023-04-01T03:32:00;6.90;;;6.15;;
57697;SDS011;43531;52.152;6.366;2023-04-01T03:32:32;8.02;;;5.72;;
57697;SDS011;43531;52.152;6.366;2023-04-01T03:33:03;8.43;;;6.40;;
57697;SDS011;43531;52.152;6.366;2023-04-01T03:33:36;10.50;;;5.88;;
57697;SDS011;43531;52.152;6.366;2023-04-01T03:34:07;7.97;;;5.70;;
57697;SDS011;43531;52.152;6.366;2023-04-01T03:34:40;11.38;;;6.97;;
57697;SDS011;43531;52.152;6.366;2023-04-01T03:35:11;9.32;;;6.85;;
57697;SDS011;43531;52.152;6.366;2023-04-01T03:35:43;7.57;;;6.10;;
57697;SDS011;43531;52.152;6.366;2023-04-01T03:36:15;9.75;;;6.30;;
57697;SDS011;43531;52.152;6.366;2023-04-01T03:36:47;9.52;;;6.78;;
57697;SDS011;43531;52.152;6.366;2023-04-01T03:37:18;6.82;;;5.25;;
57697;SDS011;43531;52.152;6.366;2023-04-01T03:37:51;7.50;;;6.57;;
57697;SDS011;43531;52.152;6.366;2023-04-01T03:38:24;8.63;;;6.40;;
57697;SDS011;43531;52.152;6.366;2023-04-01T03:38:56;9.52;;;6.50;;
57697;SDS011;43531;52.152;6.366;2023-04-01T03:39:37;9.02;;;5.93;;
57697;SDS011;43531;52.152;6.366;2023-04-01T03:40:09;7.15;;;5.93;;
57697;SDS011;43531;52.152;6.366;2023-04-01T03:40:44;10.45;;;6.32;;
57697;SDS011;43531;52.152;6.366;2023-04-01T03:41:16;9.73;;;6.55;;
57697;SDS011;43531;52.152;6.366;2023-04-01T03:41:48;7.60;;;5.68;;
57697;SDS011;43531;52.152;6.366;2023-04-01T03:42:20;9.50;;;6.97;;